Time;durP1;ratioP1;P1;durP2;ratioP2;P2;SDS_P1;SDS_P2;PMS_P1;PMS_P2;Temp;Humidity;BMP_temperature;BMP_pressure;BME280_temperature;BME280_humidity;BME280_pressure;Samples;Min_cycle;Max_cycle;Signal;HPM_P1;HPM_P2
2020/12/11 00:00:53;;;;;;;26.63;16.50;;;;;;;-0.63;86.60;98821.78;5075864;28;20045;-78
2020/12/11 00:03:21;;;;;;;28.42;17.33;;;;;;;-0.59;86.30;98812.88;5076490;28;20060;-79
2020/12/11 00:05:47;;;;;;;27.70;15.98;;;;;;;-0.62;86.48;98807.75;5074004;28;20079;-80
2020/12/11 00:08:14;;;;;;;28.98;16.92;;;;;;;-0.51;86.21;98806.50;5074087;28;20056;-79
2020/12/11 00:10:40;;;;;;;23.60;14.95;;;;;;;-0.46;85.58;98804.56;5075471;28;20056;-78
2020/12/11 00:13:06;;;;;;;25.65;15.60;;;;;;;-0.46;86.10;98794.94;5075271;28;20441;-79
2020/12/11 00:15:32;;;;;;;27.63;15.63;;;;;;;-0.42;85.56;98804.38;5074580;28;20056;-80
2020/12/11 00:17:59;;;;;;;22.13;14.73;;;;;;;-0.35;85.75;98791.03;5075937;28;20069;-79
2020/12/11 00:20:26;;;;;;;25.02;15.07;;;;;;;-0.42;85.04;98777.31;5075190;28;20373;-80
2020/12/11 00:22:53;;;;;;;23.58;14.85;;;;;;;-0.31;84.74;98776.91;5074443;28;20460;-79
2020/12/11 00:25:20;;;;;;;21.77;14.38;;;;;;;-0.35;84.85;98772.69;5075701;28;20268;-80
2020/12/11 00:27:47;;;;;;;22.88;14.13;;;;;;;-0.26;84.90;98769.72;5075970;28;20070;-78
2020/12/11 00:30:13;;;;;;;25.92;16.15;;;;;;;-0.30;84.90;98768.13;5074272;28;20109;-79
2020/12/11 00:32:39;;;;;;;24.77;15.80;;;;;;;-0.27;84.86;98778.50;5075122;28;20220;-80
2020/12/11 00:35:07;;;;;;;24.42;14.82;;;;;;;-0.26;84.23;98764.50;5074045;28;20059;-79
2020/12/11 00:37:34;;;;;;;26.33;15.48;;;;;;;-0.31;84.09;98751.56;5073983;28;20063;-79
2020/12/11 00:40:00;;;;;;;24.30;15.18;;;;;;;-0.18;84.09;98758.91;5074084;28;20425;-79
2020/12/11 00:42:26;;;;;;;27.42;16.02;;;;;;;-0.28;84.58;98742.69;5074966;28;20053;-79
2020/12/11 00:44:52;;;;;;;22.02;14.55;;;;;;;-0.24;84.27;98749.53;5075604;28;20067;-79
2020/12/11 00:47:19;;;;;;;25.23;13.80;;;;;;;-0.23;84.29;98760.91;5075662;28;20342;-78
2020/12/11 00:49:45;;;;;;;21.48;13.85;;;;;;;-0.23;84.38;98759.09;5081195;28;20139;-78
2020/12/11 00:52:11;;;;;;;23.63;15.40;;;;;;;-0.22;85.08;98773.09;5085930;28;20056;-80
2020/12/11 00:54:37;;;;;;;23.30;13.90;;;;;;;-0.25;84.67;98768.81;5087058;28;20051;-80
2020/12/11 00:57:03;;;;;;;24.17;14.02;;;;;;;-0.20;84.75;98766.00;5089067;28;20054;-80
2020/12/11 00:59:30;;;;;;;22.63;14.23;;;;;;;-0.28;84.73;98753.19;5084089;28;20095;-79
2020/12/11 01:01:56;;;;;;;23.92;15.27;;;;;;;-0.36;85.37;98752.63;5080670;28;20052;-79
2020/12/11 01:04:22;;;;;;;22.67;14.82;;;;;;;-0.49;85.39;98737.38;5078684;28;20102;-79
2020/12/11 01:06:49;;;;;;;23.00;13.82;;;;;;;-0.43;85.77;98757.28;5075927;28;20052;-79
2020/12/11 01:09:15;;;;;;;22.25;14.00;;;;;;;-0.49;85.77;98739.16;5074185;28;20052;-78
2020/12/11 01:11:41;;;;;;;22.00;14.13;;;;;;;-0.46;86.00;98737.28;5075146;28;20098;-78
2020/12/11 01:14:07;;;;;;;23.08;14.93;;;;;;;-0.40;86.02;98738.78;5075351;28;20048;-78
2020/12/11 01:16:33;;;;;;;21.88;14.05;;;;;;;-0.42;85.63;98728.34;5074365;28;20053;-79
2020/12/11 01:18:59;;;;;;;20.77;14.75;;;;;;;-0.54;86.42;98721.00;5078532;28;20052;-78
2020/12/11 01:21:25;;;;;;;21.95;14.27;;;;;;;-0.51;85.89;98723.47;5078736;28;20106;-78
2020/12/11 01:23:53;;;;;;;20.75;14.10;;;;;;;-0.48;86.28;98718.09;5077501;28;20056;-78
2020/12/11 01:26:20;;;;;;;22.58;14.18;;;;;;;-0.62;86.43;98696.81;5078336;28;20454;-78
2020/12/11 01:28:46;;;;;;;24.02;14.23;;;;;;;-0.45;85.74;98706.66;5078531;28;20117;-78
2020/12/11 01:31:19;;;;;;;21.77;14.27;;;;;;;-0.49;85.51;98705.91;5078295;28;20114;-78
2020/12/11 01:33:47;;;;;;;22.52;14.15;;;;;;;-0.49;85.70;98695.44;5078530;28;20084;-78
2020/12/11 01:36:13;;;;;;;21.23;13.45;;;;;;;-0.51;86.12;98689.41;5078319;28;20063;-79
2020/12/11 01:38:40;;;;;;;20.65;13.15;;;;;;;-0.54;85.73;98681.69;5078297;28;20048;-79
2020/12/11 01:41:06;;;;;;;20.23;13.45;;;;;;;-0.56;85.80;98673.88;5076835;28;20048;-80
2020/12/11 01:43:32;;;;;;;21.42;13.90;;;;;;;-0.59;86.31;98678.38;5077857;28;20425;-79
2020/12/11 01:45:58;;;;;;;23.83;14.15;;;;;;;-0.59;86.01;98663.50;5077768;28;20048;-77
2020/12/11 01:48:25;;;;;;;22.23;14.05;;;;;;;-0.57;86.09;98656.44;5077943;28;20052;-78
2020/12/11 01:50:53;;;;;;;19.52;12.90;;;;;;;-0.62;85.79;98650.53;5078072;28;20044;-78
2020/12/11 01:53:21;;;;;;;22.67;14.52;;;;;;;-0.67;86.61;98638.53;5077961;28;20049;-78
2020/12/11 01:55:50;;;;;;;20.05;14.23;;;;;;;-0.80;86.97;98618.03;5078084;28;20056;-78
2020/12/11 01:58:22;;;;;;;22.52;14.18;;;;;;;-0.65;86.07;98624.44;5077723;28;20058;-78
2020/12/11 02:00:50;;;;;;;23.77;14.40;;;;;;;-0.77;86.97;98617.91;5077593;28;20044;-78
2020/12/11 02:03:17;;;;;;;21.23;14.45;;;;;;;-0.79;86.67;98604.03;5077728;28;20048;-78
2020/12/11 02:05:43;;;;;;;20.48;13.82;;;;;;;-0.77;86.97;98596.94;5077485;28;20053;-79
2020/12/11 02:08:12;;;;;;;24.45;15.40;;;;;;;-0.79;87.09;98590.06;5076362;28;20121;-79
2020/12/11 02:10:38;;;;;;;23.20;14.15;;;;;;;-0.80;86.12;98591.84;5077557;28;20388;-79
2020/12/11 02:13:07;;;;;;;26.75;16.02;;;;;;;-0.73;86.26;98588.06;5077276;28;20479;-80
2020/12/11 02:15:34;;;;;;;22.98;15.00;;;;;;;-0.77;86.65;98590.88;5076222;28;20346;-79
2020/12/11 02:18:02;;;;;;;29.85;16.98;;;;;;;-0.74;86.56;98589.00;5077287;28;20135;-79
2020/12/11 02:20:28;;;;;;;31.13;18.10;;;;;;;-0.76;86.86;98587.34;5077251;28;20110;-78
2020/12/11 02:22:54;;;;;;;27.17;16.38;;;;;;;-0.76;86.31;98582.09;5077132;28;20051;-78
2020/12/11 02:25:21;;;;;;;28.77;17.83;;;;;;;-0.78;86.64;98579.53;5076308;28;20088;-78
2020/12/11 02:27:48;;;;;;;25.30;16.15;;;;;;;-0.78;86.45;98576.03;5076798;28;20074;-79
2020/12/11 02:30:16;;;;;;;26.63;17.52;;;;;;;-0.85;86.53;98573.69;5076752;28;20052;-79
2020/12/11 02:32:42;;;;;;;25.80;16.00;;;;;;;-0.82;86.44;98562.22;5077382;28;20056;-79
2020/12/11 02:35:08;;;;;;;23.30;15.60;;;;;;;-0.80;85.65;98563.03;5077439;28;20049;-78
2020/12/11 02:37:36;;;;;;;25.33;16.10;;;;;;;-0.82;86.30;98552.59;5077746;28;20059;-79
2020/12/11 02:40:04;;;;;;;24.50;16.08;;;;;;;-0.80;86.51;98556.94;5077126;28;20056;-79
2020/12/11 02:42:30;;;;;;;27.38;17.30;;;;;;;-0.84;86.17;98550.97;5077915;28;20059;-79
2020/12/11 02:44:56;;;;;;;24.92;16.52;;;;;;;-0.84;86.43;98564.06;5060396;28;20056;-80
2020/12/11 02:47:24;;;;;;;26.48;16.65;;;;;;;-0.79;85.89;98562.13;5077760;28;20052;-79
2020/12/11 02:49:50;;;;;;;25.58;16.42;;;;;;;-0.85;86.26;98552.75;5077308;28;20048;-78
2020/12/11 02:52:17;;;;;;;26.40;16.02;;;;;;;-0.84;85.91;98566.69;5076851;28;20057;-79
2020/12/11 02:54:43;;;;;;;26.38;16.60;;;;;;;-0.83;85.80;98569.25;5076080;28;20119;-80
2020/12/11 02:57:09;;;;;;;26.25;16.60;;;;;;;-0.83;86.22;98573.63;5075580;28;20079;-79
2020/12/11 02:59:35;;;;;;;28.23;17.30;;;;;;;-0.85;86.10;98576.31;5076485;28;20102;-79
2020/12/11 03:02:01;;;;;;;24.45;15.88;;;;;;;-0.94;86.52;98562.75;5076550;28;20051;-79
2020/12/11 03:04:27;;;;;;;24.20;15.65;;;;;;;-0.96;85.98;98575.88;5076644;28;20354;-79
2020/12/11 03:06:54;;;;;;;25.60;16.00;;;;;;;-1.09;86.59;98559.81;5076328;28;20441;-79
2020/12/11 03:09:20;;;;;;;23.02;15.80;;;;;;;-1.14;86.39;98557.34;5059208;28;20079;-79
2020/12/11 03:11:47;;;;;;;23.48;15.85;;;;;;;-1.19;86.46;98559.31;5077188;28;20055;-79
2020/12/11 03:14:13;;;;;;;24.25;15.93;;;;;;;-1.23;87.42;98550.72;5076165;28;20052;-78
2020/12/11 03:16:40;;;;;;;25.30;16.00;;;;;;;-1.25;87.25;98539.44;5076206;28;20056;-79
2020/12/11 03:19:06;;;;;;;25.77;16.33;;;;;;;-1.25;86.69;98562.16;5076491;28;20048;-79
2020/12/11 03:21:32;;;;;;;25.02;15.93;;;;;;;-1.27;87.04;98556.13;5076391;28;20388;-78
2020/12/11 03:23:58;;;;;;;25.05;15.13;;;;;;;-1.32;87.38;98548.44;5076100;28;20049;-79
2020/12/11 03:26:24;;;;;;;27.35;15.70;;;;;;;-1.59;86.88;98509.34;5075209;28;20052;-79
2020/12/11 03:28:52;;;;;;;26.27;16.02;;;;;;;-1.42;87.25;98552.34;5075911;28;20389;-79
2020/12/11 03:31:19;;;;;;;26.40;17.25;;;;;;;-1.34;87.83;98592.16;5075762;28;20058;-79
2020/12/11 03:33:45;;;;;;;26.02;16.67;;;;;;;-1.35;87.61;98590.47;5074837;28;20048;-79
2020/12/11 03:36:19;;;;;;;25.60;15.80;;;;;;;-1.46;88.16;98569.91;5076115;28;20059;-78
2020/12/11 03:38:45;;;;;;;24.60;16.55;;;;;;;-1.41;87.53;98574.97;5058531;28;20324;-79
2020/12/11 03:41:17;;;;;;;26.20;16.15;;;;;;;-1.55;87.78;98567.63;5075785;28;20177;-78
2020/12/11 03:43:43;;;;;;;24.73;15.25;;;;;;;-1.53;87.42;98553.59;5074606;28;20106;-78
2020/12/11 03:46:20;;;;;;;24.38;15.13;;;;;;;-1.45;87.21;98526.28;5075561;28;20410;-79
2020/12/11 03:48:49;;;;;;;25.33;15.35;;;;;;;-1.27;87.17;98546.50;5075421;28;20434;-79
2020/12/11 03:51:19;;;;;;;23.45;15.32;;;;;;;-1.18;87.28;98547.94;5075760;28;20048;-79
2020/12/11 03:53:46;;;;;;;25.70;15.60;;;;;;;-1.13;87.27;98534.66;5074685;28;20056;-79
2020/12/11 03:56:16;;;;;;;25.20;15.93;;;;;;;-1.03;87.45;98533.34;5075631;28;20051;-79
2020/12/11 03:58:43;;;;;;;23.73;15.83;;;;;;;-1.10;86.87;98501.34;5075560;28;20064;-79
2020/12/11 04:01:13;;;;;;;22.35;15.80;;;;;;;-1.05;86.98;98490.69;5075662;28;20048;-79
2020/12/11 04:03:40;;;;;;;25.52;14.63;;;;;;;-1.10;87.23;98469.91;5074528;28;20464;-79
2020/12/11 04:06:12;;;;;;;24.60;15.43;;;;;;;-1.02;86.97;98477.47;5074565;28;20048;-78
2020/12/11 04:08:38;;;;;;;24.52;15.15;;;;;;;-1.04;86.95;98457.50;5074213;28;20052;-79
2020/12/11 04:11:05;;;;;;;21.48;13.60;;;;;;;-0.91;86.91;98447.34;5075448;28;20113;-79
2020/12/11 04:13:32;;;;;;;21.42;14.70;;;;;;;-0.78;86.81;98453.78;5073910;28;20446;-79
2020/12/11 04:16:00;;;;;;;20.83;14.02;;;;;;;-0.66;86.95;98441.94;5075085;28;20044;-79
2020/12/11 04:18:27;;;;;;;20.35;14.40;;;;;;;-0.55;86.26;98436.22;5075375;28;20377;-79
2020/12/11 04:20:55;;;;;;;20.00;14.25;;;;;;;-0.63;86.33;98409.50;5074137;28;20059;-79
2020/12/11 04:23:22;;;;;;;21.92;14.88;;;;;;;-0.40;85.35;98420.78;5075065;28;20130;-79
2020/12/11 04:25:49;;;;;;;22.38;14.13;;;;;;;-0.42;85.20;98405.94;5073806;28;20068;-78
2020/12/11 04:28:16;;;;;;;21.15;14.35;;;;;;;-0.48;85.87;98387.03;5075171;28;20052;-78
2020/12/11 04:30:42;;;;;;;23.00;14.55;;;;;;;-0.42;85.81;98392.84;5073760;28;20430;-78
2020/12/11 04:33:08;;;;;;;20.38;13.55;;;;;;;-0.39;85.60;98394.47;5075289;28;20143;-79
2020/12/11 04:35:34;;;;;;;21.48;13.90;;;;;;;-0.42;86.09;98379.72;5074747;28;20158;-78
2020/12/11 04:38:01;;;;;;;21.27;12.75;;;;;;;-0.42;86.06;98365.78;5073979;28;20061;-79
2020/12/11 04:40:28;;;;;;;18.92;12.85;;;;;;;-0.30;85.65;98373.09;5073834;28;20442;-78
2020/12/11 04:42:55;;;;;;;18.75;12.60;;;;;;;-0.26;85.49;98360.69;5075150;28;20064;-78
2020/12/11 04:45:22;;;;;;;18.63;12.48;;;;;;;-0.23;85.34;98350.06;5075011;28;20057;-78
2020/12/11 04:47:50;;;;;;;20.05;12.75;;;;;;;-0.42;85.91;98323.84;5075224;28;20056;-78
2020/12/11 04:50:18;;;;;;;18.85;12.30;;;;;;;-0.25;85.53;98330.94;5073902;28;20049;-78
2020/12/11 04:52:47;;;;;;;21.10;13.48;;;;;;;-0.13;85.91;98318.19;5077637;28;20049;-78
2020/12/11 04:55:17;;;;;;;19.02;12.18;;;;;;;-0.12;85.64;98314.63;5079009;28;20433;-79
2020/12/11 04:57:54;;;;;;;18.92;11.63;;;;;;;-0.01;86.52;98320.22;5077972;28;20052;-79
2020/12/11 05:00:22;;;;;;;18.40;11.63;;;;;;;0.03;86.75;98313.91;5078467;28;20098;-78
2020/12/11 05:02:50;;;;;;;15.50;10.57;;;;;;;0.10;86.42;98315.31;5059106;28;20053;-80
2020/12/11 05:05:17;;;;;;;16.83;10.95;;;;;;;0.12;87.11;98296.88;5058714;28;20345;-80
2020/12/11 05:07:44;;;;;;;15.38;10.20;;;;;;;0.18;86.79;98285.22;5058551;28;20057;-79
2020/12/11 05:10:12;;;;;;;16.27;10.93;;;;;;;0.12;87.68;98266.22;5058863;28;20049;-79
2020/12/11 05:12:42;;;;;;;16.48;10.10;;;;;;;0.25;87.53;98263.00;5058518;28;20505;-79
2020/12/11 05:15:12;;;;;;;15.02;9.70;;;;;;;0.30;87.21;98262.78;5059582;28;20053;-80
2020/12/11 05:17:42;;;;;;;15.93;10.07;;;;;;;0.37;87.60;98265.03;5078383;28;20059;-79
2020/12/11 05:20:11;;;;;;;15.70;10.60;;;;;;;0.44;87.26;98264.72;5078404;28;20053;-79
2020/12/11 05:22:39;;;;;;;14.98;10.25;;;;;;;0.46;87.68;98258.47;5078257;28;20056;-79
2020/12/11 05:25:15;;;;;;;15.45;9.90;;;;;;;0.45;87.26;98248.06;5078136;28;20056;-79
2020/12/11 05:27:43;;;;;;;16.27;10.02;;;;;;;0.52;87.19;98241.56;5077754;28;20051;-79
2020/12/11 05:30:15;;;;;;;14.82;9.75;;;;;;;0.51;87.22;98239.88;5076883;28;20102;-79
2020/12/11 05:32:45;;;;;;;16.35;10.45;;;;;;;0.50;87.54;98230.31;5078564;28;20056;-80
2020/12/11 05:35:21;;;;;;;13.95;9.77;;;;;;;0.53;87.61;98238.88;5078300;28;20049;-80
2020/12/11 05:37:49;;;;;;;13.27;9.20;;;;;;;0.50;87.64;98230.31;5078539;28;20071;-79
2020/12/11 05:40:18;;;;;;;13.85;10.07;;;;;;;0.51;87.69;98235.47;5078407;28;20081;-79
2020/12/11 05:43:04;;;;;;;14.60;9.45;;;;;;;0.50;87.41;98227.69;5078400;28;20044;-79
2020/12/11 05:45:31;;;;;;;16.20;10.48;;;;;;;0.47;87.09;98227.81;5077976;28;20450;-79
2020/12/11 05:47:59;;;;;;;17.98;11.13;;;;;;;0.35;87.10;98229.28;5076857;28;20061;-80
2020/12/11 05:50:25;;;;;;;15.77;10.60;;;;;;;0.14;87.41;98216.31;5078197;28;20106;-80
2020/12/11 05:52:53;;;;;;;18.88;11.98;;;;;;;0.15;86.67;98219.81;5077852;28;20495;-79
2020/12/11 05:55:21;;;;;;;16.88;11.45;;;;;;;0.09;87.17;98213.06;5076993;28;20429;-79
2020/12/11 05:57:58;;;;;;;18.35;11.75;;;;;;;0.04;87.49;98226.41;5077654;28;20048;-78
2020/12/11 06:00:25;;;;;;;19.30;12.02;;;;;;;-0.03;87.52;98214.53;5076931;28;20048;-79
2020/12/11 06:02:53;;;;;;;17.33;11.32;;;;;;;0.02;87.87;98217.78;5075966;28;20048;-78
2020/12/11 06:05:21;;;;;;;16.52;10.82;;;;;;;0.04;87.82;98221.16;5066275;28;20051;-78
2020/12/11 06:07:50;;;;;;;16.42;11.02;;;;;;;0.03;88.41;98214.22;5077139;28;20061;-78
2020/12/11 06:10:19;;;;;;;16.55;10.40;;;;;;;0.09;88.40;98213.06;5074593;28;20053;-77
2020/12/11 06:12:45;;;;;;;15.63;10.65;;;;;;;0.08;89.17;98211.38;5069585;28;20052;-78
2020/12/11 06:15:21;;;;;;;15.93;10.68;;;;;;;0.07;88.63;98212.31;5065353;28;20108;-77
2020/12/11 06:17:52;;;;;;;13.57;9.68;;;;;;;0.04;88.94;98205.44;5073836;28;20109;-78
2020/12/11 06:20:19;;;;;;;15.88;10.85;;;;;;;0.09;88.89;98198.19;5073455;28;20188;-77
2020/12/11 06:22:46;;;;;;;15.80;10.70;;;;;;;0.10;89.33;98199.03;5075129;28;20048;-77
2020/12/11 06:25:29;;;;;;;15.85;9.60;;;;;;;0.10;89.15;98186.75;5073084;28;20048;-75
2020/12/11 06:27:57;;;;;;;14.90;9.98;;;;;;;0.13;89.29;98183.16;5077748;28;20105;-77
2020/12/11 06:30:33;;;;;;;15.20;10.25;;;;;;;0.22;89.34;98187.09;5073739;28;20052;-77
2020/12/11 06:33:01;;;;;;;16.05;10.52;;;;;;;0.18;88.60;98175.03;5080144;28;20328;-80
2020/12/11 06:35:29;;;;;;;15.45;10.15;;;;;;;0.29;88.78;98185.00;5074414;28;20044;-78
2020/12/11 06:37:55;;;;;;;14.40;10.05;;;;;;;0.21;88.68;98170.47;5068146;28;20085;-79
2020/12/11 06:40:47;;;;;;;13.77;9.02;;;;;;;0.32;88.76;98169.94;5059529;28;20088;-79
2020/12/11 06:43:37;;;;;;;14.10;9.23;;;;;;;0.40;88.97;98166.94;5059772;28;20040;-76
2020/12/11 06:46:17;;;;;;;13.07;9.30;;;;;;;0.45;88.78;98159.69;5056243;28;20583;-80
2020/12/11 06:49:06;;;;;;;15.00;10.00;;;;;;;0.50;88.83;98157.63;5061801;28;20057;-79
2020/12/11 06:51:52;;;;;;;13.90;9.27;;;;;;;0.70;88.44;98160.16;5066084;28;20324;-77
2020/12/11 06:54:21;;;;;;;13.90;9.13;;;;;;;0.71;88.31;98152.19;5061358;28;20048;-78
2020/12/11 06:56:49;;;;;;;13.82;9.00;;;;;;;0.80;88.00;98143.84;5056527;28;20114;-76
2020/12/11 06:59:19;;;;;;;13.63;8.73;;;;;;;0.86;87.85;98150.53;5056554;28;20053;-73
2020/12/11 07:01:45;;;;;;;15.20;9.32;;;;;;;0.76;87.84;98131.78;5059955;28;20041;-75
2020/12/11 07:04:12;;;;;;;12.75;8.55;;;;;;;0.89;87.77;98139.00;5073596;28;20083;-75
2020/12/11 07:06:38;;;;;;;14.38;8.65;;;;;;;0.96;87.41;98145.63;5058502;28;20049;-76
2020/12/11 07:09:04;;;;;;;12.93;8.18;;;;;;;0.92;87.82;98141.47;5056170;28;20103;-75
2020/12/11 07:11:31;;;;;;;17.58;9.80;;;;;;;0.91;87.76;98142.38;5064538;28;20057;-76
2020/12/11 07:13:57;;;;;;;11.98;8.70;;;;;;;0.89;87.89;98134.63;5074173;28;20347;-78
2020/12/11 07:16:23;;;;;;;13.23;9.25;;;;;;;0.97;87.54;98146.50;5075742;28;20048;-81
2020/12/11 07:18:49;;;;;;;12.57;8.73;;;;;;;0.96;87.33;98134.28;5075265;28;20060;-77
2020/12/11 07:21:17;;;;;;;13.27;8.85;;;;;;;0.89;87.40;98126.75;5075539;28;20048;-78
2020/12/11 07:23:43;;;;;;;15.45;9.02;;;;;;;0.92;87.80;98134.44;5076117;28;20573;-79
2020/12/11 07:26:11;;;;;;;12.15;9.32;;;;;;;0.93;87.73;98123.00;5077940;28;20063;-75
2020/12/11 07:28:37;;;;;;;14.90;9.73;;;;;;;0.86;87.81;98115.56;5078437;28;20075;-76
2020/12/11 07:31:10;;;;;;;16.45;10.32;;;;;;;0.87;87.91;98122.50;5075557;28;20052;-75
2020/12/11 07:33:36;;;;;;;15.05;9.95;;;;;;;0.86;87.79;98120.81;5075434;28;20059;-76
2020/12/11 07:36:03;;;;;;;13.93;9.07;;;;;;;0.90;88.02;98122.31;5059315;28;20067;-76
2020/12/11 07:38:31;;;;;;;14.23;9.93;;;;;;;0.86;88.03;98113.75;5076280;28;20048;-76
2020/12/11 07:40:59;;;;;;;15.20;10.43;;;;;;;0.91;87.56;98113.50;5085882;28;20044;-76
2020/12/11 07:43:27;;;;;;;13.85;9.13;;;;;;;0.86;88.10;98105.03;5082131;28;20074;-80
2020/12/11 07:45:53;;;;;;;14.73;9.70;;;;;;;0.79;87.91;98102.75;5079656;28;20114;-77
2020/12/11 07:48:20;;;;;;;14.10;9.77;;;;;;;0.79;87.71;98101.88;5089029;28;20048;-76
2020/12/11 07:50:47;;;;;;;13.70;9.68;;;;;;;0.64;88.19;98087.81;5083300;28;20428;-77
2020/12/11 07:53:13;;;;;;;15.32;10.02;;;;;;;0.73;88.40;98102.22;5077822;28;20059;-75
2020/12/11 07:55:43;;;;;;;15.82;9.70;;;;;;;0.67;88.57;98093.72;5074053;28;20140;-77
2020/12/11 07:58:09;;;;;;;18.63;9.70;;;;;;;0.75;88.70;98101.22;5074289;28;20049;-77
2020/12/11 08:00:37;;;;;;;15.23;10.30;;;;;;;0.82;88.85;98104.38;5075984;28;20052;-77
2020/12/11 08:03:06;;;;;;;13.60;8.90;;;;;;;0.99;89.11;98103.44;5075511;28;20075;-77
2020/12/11 08:05:34;;;;;;;11.23;8.10;;;;;;;1.12;88.95;98098.34;5075604;28;20083;-76
2020/12/11 08:08:02;;;;;;;11.40;7.95;;;;;;;1.26;88.51;98099.34;5057525;28;20064;-77
2020/12/11 08:10:43;;;;;;;12.65;8.27;;;;;;;1.37;88.18;98094.34;5075785;28;20350;-76
2020/12/11 08:13:17;;;;;;;14.18;8.15;;;;;;;1.36;88.11;98090.00;5068589;28;20048;-76
2020/12/11 08:15:45;;;;;;;11.18;7.95;;;;;;;1.45;88.07;98099.16;5074886;28;20049;-77
2020/12/11 08:18:12;;;;;;;11.52;7.63;;;;;;;1.51;87.84;98106.69;5075813;28;20055;-78
2020/12/11 08:20:49;;;;;;;11.40;8.30;;;;;;;1.61;87.65;98093.88;5066848;28;20052;-78
2020/12/11 08:23:44;;;;;;;11.30;7.60;;;;;;;1.81;87.23;98078.72;5074775;28;20105;-77
2020/12/11 08:26:16;;;;;;;10.85;7.28;;;;;;;1.73;87.36;98072.13;5073709;28;20055;-78
2020/12/11 08:28:43;;;;;;;10.50;7.25;;;;;;;1.77;87.38;98062.28;5075340;28;20067;-78
2020/12/11 08:31:23;;;;;;;10.80;7.10;;;;;;;1.85;87.23;98077.63;5075221;28;20048;-77
2020/12/11 08:33:59;;;;;;;9.93;7.20;;;;;;;1.93;87.30;98082.41;5072965;28;20059;-78
2020/12/11 08:36:27;;;;;;;12.98;7.70;;;;;;;1.97;87.19;98070.78;5075133;28;20056;-78
2020/12/11 08:39:13;;;;;;;10.65;7.32;;;;;;;2.04;87.08;98072.09;5075106;28;20086;-77
2020/12/11 08:41:46;;;;;;;8.93;6.75;;;;;;;2.03;86.75;98068.63;5075055;28;20049;-78
2020/12/11 08:44:26;;;;;;;11.77;7.35;;;;;;;2.11;86.91;98070.78;5074208;28;20075;-78
2020/12/11 08:47:29;;;;;;;9.20;7.05;;;;;;;2.21;86.62;98065.81;5074999;28;20059;-78
2020/12/11 08:50:04;;;;;;;12.60;7.03;;;;;;;2.42;85.84;98062.81;5075489;28;20076;-78
2020/12/11 08:52:30;;;;;;;10.73;6.45;;;;;;;2.48;86.09;98058.97;5075047;28;20284;-77
2020/12/11 08:54:57;;;;;;;10.90;6.47;;;;;;;2.55;86.21;98063.75;5075110;28;20378;-76
2020/12/11 08:57:27;;;;;;;8.80;5.95;;;;;;;2.57;86.26;98061.03;5075194;28;20106;-77
2020/12/11 08:59:53;;;;;;;5.55;3.97;;;;;;;2.58;86.08;98045.13;5074000;28;20048;-77
2020/12/11 09:02:20;;;;;;;7.40;5.35;;;;;;;2.69;85.82;98044.47;5075072;28;20052;-78
2020/12/11 09:04:48;;;;;;;6.53;4.95;;;;;;;2.76;85.53;98041.44;5074735;28;20083;-77
2020/12/11 09:07:32;;;;;;;7.47;5.07;;;;;;;2.77;85.57;98046.59;5073942;28;20048;-78
2020/12/11 09:09:59;;;;;;;6.82;4.53;;;;;;;2.88;85.68;98059.09;5075325;28;20068;-78
2020/12/11 09:12:26;;;;;;;6.43;4.65;;;;;;;2.99;85.30;98047.88;5075111;28;20126;-77
2020/12/11 09:14:52;;;;;;;6.35;4.25;;;;;;;3.08;84.78;98052.56;5073589;28;20052;-78
2020/12/11 09:17:18;;;;;;;6.78;4.93;;;;;;;3.02;85.60;98045.06;5075052;28;20056;-79
2020/12/11 09:19:45;;;;;;;9.13;4.45;;;;;;;2.99;85.27;98043.47;5074576;28;20084;-77
2020/12/11 09:22:11;;;;;;;6.85;4.25;;;;;;;3.04;85.22;98042.34;5075093;28;20053;-78
2020/12/11 09:24:38;;;;;;;6.47;4.72;;;;;;;3.09;84.99;98037.59;5073468;28;20135;-78
2020/12/11 09:27:05;;;;;;;7.43;4.90;;;;;;;3.09;84.69;98025.28;5074856;28;20053;-78
2020/12/11 09:29:38;;;;;;;6.18;4.95;;;;;;;3.15;84.96;98041.63;5074605;28;20048;-78
2020/12/11 09:32:06;;;;;;;6.25;4.68;;;;;;;3.19;84.87;98038.69;5074824;28;20051;-78
2020/12/11 09:34:34;;;;;;;5.82;4.75;;;;;;;3.21;84.19;98030.69;5074505;28;20060;-80
2020/12/11 09:37:04;;;;;;;6.00;4.15;;;;;;;3.33;84.22;98035.13;5074496;28;20049;-77
2020/12/11 09:39:30;;;;;;;6.03;4.43;;;;;;;3.42;84.22;98025.78;5078102;28;20048;-78
2020/12/11 09:42:12;;;;;;;5.30;3.90;;;;;;;3.49;84.20;98024.44;5077619;28;20045;-77
2020/12/11 09:44:47;;;;;;;6.50;4.38;;;;;;;3.56;83.88;98016.97;5078291;28;20075;-77
2020/12/11 09:54:50;;;;;;;4.30;3.78;;;;;;;3.86;82.63;98007.09;5077104;28;20053;-77
2020/12/11 09:57:16;;;;;;;9.07;3.75;;;;;;;3.93;81.89;98000.44;5077967;28;20044;-77
2020/12/11 10:00:02;;;;;;;4.25;3.35;;;;;;;4.02;82.09;97997.16;5076876;28;20044;-77
2020/12/11 10:05:13;;;;;;;4.75;3.63;;;;;;;4.02;81.44;97983.09;5077594;28;20063;-78
2020/12/11 10:07:39;;;;;;;4.07;3.40;;;;;;;4.10;81.74;97995.78;5077774;28;20059;-77
2020/12/11 10:10:06;;;;;;;4.30;3.50;;;;;;;4.16;81.08;97995.38;5076835;28;20181;-77
2020/12/11 10:12:32;;;;;;;4.82;3.35;;;;;;;4.21;81.40;98001.19;5077553;28;20116;-78
2020/12/11 10:15:04;;;;;;;3.65;3.03;;;;;;;4.20;81.19;98000.31;5076888;28;20053;-77
2020/12/11 10:17:30;;;;;;;3.78;3.00;;;;;;;4.29;81.12;97997.97;5077498;28;20048;-78
2020/12/11 10:19:57;;;;;;;3.75;3.05;;;;;;;4.24;81.30;97994.84;5077616;28;20048;-77
2020/12/11 10:22:23;;;;;;;4.07;3.20;;;;;;;4.31;81.15;97998.75;5077491;28;20047;-77
2020/12/11 10:24:49;;;;;;;4.10;2.80;;;;;;;4.26;81.13;97992.94;5076210;28;20059;-78
2020/12/11 10:27:15;;;;;;;4.32;2.72;;;;;;;4.33;80.88;97973.91;5076037;28;20057;-77
2020/12/11 10:29:42;;;;;;;4.40;3.00;;;;;;;4.35;80.87;97985.22;5077566;28;20059;-78
2020/12/11 10:32:09;;;;;;;3.05;2.45;;;;;;;4.35;81.04;97974.63;5077371;28;20045;-77
2020/12/11 10:34:35;;;;;;;4.65;2.70;;;;;;;4.45;80.53;97964.28;5077129;28;20057;-76
2020/12/11 10:37:07;;;;;;;3.67;2.97;;;;;;;4.62;80.78;97978.06;5077072;28;20121;-77
2020/12/11 10:39:33;;;;;;;3.75;2.80;;;;;;;4.70;80.75;97965.16;5076661;28;20442;-77
2020/12/11 10:42:01;;;;;;;4.32;3.30;;;;;;;4.82;79.69;97968.72;5076920;28;20098;-77
2020/12/11 10:44:27;;;;;;;3.90;2.70;;;;;;;4.79;80.20;97962.81;5076762;28;20053;-77
2020/12/11 10:46:56;;;;;;;5.75;2.67;;;;;;;4.88;79.72;97965.63;5076862;28;20434;-78
2020/12/11 10:49:22;;;;;;;3.17;2.60;;;;;;;4.85;79.26;97954.44;5076037;28;20048;-78
2020/12/11 10:51:49;;;;;;;3.83;2.60;;;;;;;4.83;79.29;97953.66;5076593;28;20044;-77
2020/12/11 10:54:17;;;;;;;2.70;2.30;;;;;;;4.81;80.11;97961.72;5077438;28;20131;-78
2020/12/11 10:56:45;;;;;;;3.28;2.58;;;;;;;4.79;80.55;97949.59;5077011;28;20060;-78
2020/12/11 10:59:15;;;;;;;4.22;2.45;;;;;;;4.75;80.37;97943.69;5075912;28;20084;-78
2020/12/11 11:01:41;;;;;;;3.13;2.50;;;;;;;4.78;80.53;97943.44;5076833;28;20053;-76
2020/12/11 11:04:08;;;;;;;2.25;2.05;;;;;;;4.72;80.26;97931.53;5076435;28;20496;-77
2020/12/11 11:06:40;;;;;;;3.30;2.10;;;;;;;4.81;80.27;97945.03;5076304;28;20480;-77
2020/12/11 11:11:40;;;;;;;1.98;1.77;;;;;;;4.88;79.85;97938.31;5076355;28;20048;-78
2020/12/11 11:29:56;;;;;;;3.03;1.38;;;;;;;5.03;79.27;97892.25;5076846;28;20045;-76
2020/12/11 11:32:22;;;;;;;1.23;1.00;;;;;;;5.14;78.95;97909.94;5057798;28;20106;-78
2020/12/11 11:34:48;;;;;;;1.40;1.30;;;;;;;5.15;79.36;97905.50;5075292;28;20048;-77
2020/12/11 11:37:15;;;;;;;2.22;1.30;;;;;;;5.09;79.01;97898.91;5074896;28;20135;-78
2020/12/11 11:39:41;;;;;;;1.55;1.30;;;;;;;5.15;79.41;97900.22;5058901;28;20052;-77
2020/12/11 11:42:07;;;;;;;4.18;1.63;;;;;;;5.00;79.18;97884.56;5075919;28;20049;-77
2020/12/11 11:47:15;;;;;;;1.30;1.13;;;;;;;5.00;80.13;97897.78;5063539;28;20079;-77
2020/12/11 11:52:44;;;;;;;1.98;1.63;;;;;;;4.71;82.80;97892.00;5055648;28;20049;-79
2020/12/11 11:55:12;;;;;;;1.70;1.38;;;;;;;4.70;83.28;97891.16;5063845;28;20054;-78
2020/12/11 11:57:42;;;;;;;1.30;1.20;;;;;;;4.68;82.63;97887.78;5066386;28;20049;-75
2020/12/11 12:00:10;;;;;;;1.27;1.17;;;;;;;4.61;83.01;97883.91;5066338;28;20052;-77
2020/12/11 12:02:36;;;;;;;1.55;1.30;;;;;;;4.57;83.33;97870.06;5075401;28;20094;-79
2020/12/11 12:05:04;;;;;;;2.03;1.33;;;;;;;4.60;82.92;97882.22;5072513;28;20560;-77
2020/12/11 12:07:33;;;;;;;2.28;1.25;;;;;;;4.61;83.15;97876.81;5058842;28;20049;-79